createdAt,value
2018-03-28T00:00:54.636Z,26.40
2018-03-28T00:01:54.503Z,26.30
2018-03-28T00:03:47.241Z,26.30
2018-03-28T00:04:47.113Z,26.30
2018-03-28T00:06:40.176Z,26.40
2018-03-28T00:07:39.892Z,25.90
2018-03-28T00:09:32.615Z,26.70
2018-03-28T00:10:32.511Z,26.40
2018-03-28T00:12:25.304Z,26.90
2018-03-28T00:13:25.193Z,26.50
2018-03-28T00:15:17.913Z,25.80
2018-03-28T00:16:17.814Z,26.20
2018-03-28T00:18:10.587Z,26.50
2018-03-28T00:19:10.462Z,26.30
2018-03-28T00:21:03.208Z,28.00
2018-03-28T00:22:03.102Z,27.70
2018-03-28T00:23:55.863Z,27.40
2018-03-28T00:24:55.751Z,28.00
2018-03-28T00:26:48.500Z,27.10
2018-03-28T00:27:48.408Z,27.10
2018-03-28T00:29:41.173Z,28.10
2018-03-28T00:30:41.056Z,28.10
2018-03-28T00:32:35.359Z,28.30
2018-03-28T00:33:35.253Z,28.10
2018-03-28T00:35:28.109Z,29.00
2018-03-28T00:36:27.970Z,30.20
2018-03-28T00:38:21.239Z,30.10
2018-03-28T00:39:21.138Z,29.80
2018-03-28T00:41:14.414Z,30.50
2018-03-28T00:42:14.301Z,31.20
2018-03-28T00:44:07.558Z,31.60
2018-03-28T00:46:23.152Z,31.00
2018-03-28T00:47:23.046Z,32.00
2018-03-28T00:49:15.777Z,31.40
2018-03-28T00:50:15.727Z,31.30
2018-03-28T00:52:10.008Z,30.40
2018-03-28T00:53:09.878Z,32.00
2018-03-28T00:55:03.145Z,32.10
2018-03-28T00:56:03.034Z,32.20
2018-03-28T00:57:56.330Z,31.80
2018-03-28T00:58:56.231Z,31.70
2018-03-28T01:00:50.463Z,32.30
2018-03-28T01:01:50.371Z,32.10
2018-03-28T01:03:43.123Z,32.40
2018-03-28T01:04:43.044Z,32.90
2018-03-28T01:06:35.784Z,31.30
2018-03-28T01:07:35.660Z,32.40
2018-03-28T01:09:28.420Z,31.70
2018-03-28T01:10:28.329Z,32.10
2018-03-28T01:12:21.080Z,31.70
2018-03-28T01:13:20.958Z,31.70
2018-03-28T01:15:13.731Z,33.10
2018-03-28T01:16:13.608Z,32.30
2018-03-28T01:18:06.364Z,33.20
2018-03-28T01:19:06.248Z,33.60
2018-03-28T01:20:59.011Z,35.20
2018-03-28T01:21:58.922Z,38.10
2018-03-28T01:23:51.647Z,46.80
2018-03-28T01:24:51.553Z,48.20
2018-03-28T01:26:44.307Z,52.60
2018-03-28T01:27:44.226Z,50.00
2018-03-28T01:29:36.955Z,48.10
2018-03-28T01:30:36.842Z,45.80
2018-03-28T01:32:29.594Z,48.70
2018-03-28T01:33:29.487Z,53.00
2018-03-28T01:35:22.762Z,56.60
2018-03-28T01:36:22.645Z,59.30
2018-03-28T01:38:15.943Z,69.40
2018-03-28T01:39:15.827Z,65.70
2018-03-28T01:41:08.565Z,57.40
2018-03-28T01:42:08.462Z,56.10
2018-03-28T01:44:01.220Z,46.60
2018-03-28T01:45:01.104Z,42.50
2018-03-28T01:46:55.395Z,49.50
2018-03-28T01:47:55.292Z,53.60
2018-03-28T01:49:48.061Z,53.70
2018-03-28T01:50:47.928Z,57.60
2018-03-28T01:52:40.675Z,54.40
2018-03-28T01:53:40.574Z,55.20
2018-03-28T01:55:33.342Z,51.20
2018-03-28T01:56:33.228Z,50.80
2018-03-28T01:58:26.000Z,57.50
2018-03-28T01:59:25.871Z,54.10
2018-03-28T02:01:19.691Z,34.50
2018-03-28T02:02:19.541Z,32.60
2018-03-28T02:04:12.810Z,30.60
2018-03-28T02:05:12.711Z,29.20
2018-03-28T02:07:05.478Z,30.40
2018-03-28T02:08:05.351Z,28.80
2018-03-28T02:09:58.096Z,30.60
2018-03-28T02:10:57.995Z,29.60
2018-03-28T02:12:51.037Z,31.00
2018-03-28T02:13:50.656Z,30.40
2018-03-28T02:15:43.417Z,29.90
2018-03-28T02:16:43.287Z,28.80
2018-03-28T02:18:36.047Z,28.90
2018-03-28T02:19:35.950Z,28.20
2018-03-28T02:21:28.685Z,29.10
2018-03-28T02:22:28.583Z,27.80
2018-03-28T02:24:21.345Z,28.00
2018-03-28T02:25:21.230Z,28.70
2018-03-28T02:27:15.124Z,27.80
2018-03-28T02:28:13.879Z,28.00
2018-03-28T02:30:06.643Z,27.40
2018-03-28T02:31:06.557Z,27.60
2018-03-28T02:32:59.275Z,27.70
2018-03-28T02:33:59.188Z,28.90
2018-03-28T02:35:51.942Z,31.20
2018-03-28T02:36:51.825Z,32.50
2018-03-28T02:38:44.589Z,28.70
2018-03-28T02:39:44.472Z,27.80
2018-03-28T02:41:37.244Z,27.40
2018-03-28T02:42:37.161Z,28.40
2018-03-28T02:44:30.386Z,31.50
2018-03-28T02:45:30.282Z,32.10
2018-03-28T02:47:23.060Z,32.50
2018-03-28T02:48:22.918Z,28.80
2018-03-28T02:50:15.689Z,30.30
2018-03-28T02:51:15.582Z,26.90
2018-03-28T02:53:08.362Z,28.30
2018-03-28T02:54:08.215Z,29.80
2018-03-28T02:56:00.968Z,29.50
2018-03-28T02:57:00.862Z,29.20
2018-03-28T02:58:53.651Z,26.40
2018-03-28T02:59:53.506Z,27.20
2018-03-28T03:01:46.270Z,26.50
2018-03-28T03:02:46.154Z,26.30
2018-03-28T03:04:38.922Z,26.10
2018-03-28T03:05:38.801Z,26.00
2018-03-28T03:07:31.583Z,25.70
2018-03-28T03:08:31.465Z,25.70
2018-03-28T03:10:24.218Z,26.00
2018-03-28T03:11:24.099Z,26.30
2018-03-28T03:13:16.847Z,25.80
2018-03-28T03:14:16.761Z,26.00
2018-03-28T03:16:10.056Z,24.50
2018-03-28T03:17:09.907Z,26.20
2018-03-28T03:19:02.746Z,25.60
2018-03-28T03:20:02.662Z,26.20
2018-03-28T03:21:55.451Z,25.50
2018-03-28T03:22:55.303Z,25.70
2018-03-28T03:24:48.049Z,25.80
2018-03-28T03:25:47.948Z,26.10
2018-03-28T03:27:40.807Z,25.10
2018-03-28T03:28:40.737Z,26.10
2018-03-28T03:30:33.448Z,27.00
2018-03-28T03:31:33.349Z,26.00
2018-03-28T03:33:26.629Z,24.80
2018-03-28T03:34:26.557Z,25.60
2018-03-28T03:36:19.771Z,26.50
2018-03-28T03:37:19.668Z,26.10
2018-03-28T03:39:12.439Z,27.00
2018-03-28T03:40:12.326Z,26.90
2018-03-28T03:42:05.066Z,25.90
2018-03-28T03:43:04.968Z,26.60
2018-03-28T03:45:01.718Z,26.70
2018-03-28T03:46:01.605Z,25.90
2018-03-28T03:47:54.375Z,28.90
2018-03-28T03:48:54.248Z,28.70
2018-03-28T03:50:47.004Z,29.30
2018-03-28T03:51:46.892Z,28.50
2018-03-28T03:53:39.672Z,26.20
2018-03-28T03:54:39.555Z,26.50
2018-03-28T03:56:32.323Z,30.20
2018-03-28T03:57:32.192Z,32.40
2018-03-28T03:59:24.943Z,32.60
2018-03-28T04:00:24.848Z,32.60
2018-03-28T04:02:17.691Z,32.30
2018-03-28T04:03:17.484Z,32.30
2018-03-28T04:05:10.253Z,32.70
2018-03-28T04:06:10.130Z,32.50
2018-03-28T04:08:02.899Z,31.30
2018-03-28T04:09:02.806Z,30.30
2018-03-28T04:10:58.061Z,31.70
2018-03-28T04:11:55.730Z,32.00
2018-03-28T04:13:48.505Z,32.30
2018-03-28T04:14:49.601Z,32.00
2018-03-28T04:16:41.153Z,33.70
2018-03-28T04:17:41.031Z,32.40
2018-03-28T04:19:34.534Z,32.00
2018-03-28T04:20:34.419Z,33.30
2018-03-28T04:22:27.232Z,37.60
2018-03-28T04:23:27.080Z,36.50
2018-03-28T04:25:19.895Z,37.50
2018-03-28T04:26:19.781Z,36.40
2018-03-28T04:28:12.652Z,36.50
2018-03-28T04:29:12.528Z,36.20
2018-03-28T04:31:05.312Z,37.00
2018-03-28T04:32:05.238Z,35.50
2018-03-28T04:33:57.962Z,32.80
2018-03-28T04:34:57.840Z,34.00
2018-03-28T04:36:50.612Z,33.90
2018-03-28T04:37:50.499Z,34.30
2018-03-28T04:39:43.216Z,34.40
2018-03-28T04:40:43.117Z,36.10
2018-03-28T04:42:35.897Z,38.00
2018-03-28T04:43:35.770Z,39.50
2018-03-28T04:45:28.645Z,38.60
2018-03-28T04:46:28.524Z,36.50
2018-03-28T04:48:21.291Z,37.80
2018-03-28T04:49:21.174Z,38.30
2018-03-28T04:51:15.530Z,37.80
2018-03-28T04:52:15.373Z,41.50
2018-03-28T04:54:08.123Z,39.40
2018-03-28T04:55:08.023Z,37.50
2018-03-28T04:57:00.743Z,41.10
2018-03-28T04:58:00.648Z,41.90
2018-03-28T04:59:53.521Z,40.40
2018-03-28T05:00:53.402Z,41.50
2018-03-28T05:02:46.148Z,39.80
2018-03-28T05:03:46.055Z,40.70
2018-03-28T05:05:38.796Z,41.30
2018-03-28T05:06:38.694Z,43.00
2018-03-28T05:08:31.435Z,41.00
2018-03-28T05:09:31.352Z,39.80
2018-03-28T05:11:24.105Z,40.60
2018-03-28T05:12:24.006Z,38.60
2018-03-28T05:14:16.840Z,36.30
2018-03-28T05:15:16.635Z,35.20
2018-03-28T05:17:09.919Z,36.00
2018-03-28T05:18:09.793Z,36.20
2018-03-28T05:20:02.537Z,46.50
2018-03-28T05:21:02.451Z,45.80
2018-03-28T05:22:55.210Z,44.20
2018-03-28T05:23:55.101Z,43.40
2018-03-28T05:25:47.928Z,44.00
2018-03-28T05:26:47.833Z,42.90
2018-03-28T05:28:41.130Z,42.80
2018-03-28T05:29:40.999Z,41.20
2018-03-28T05:31:34.280Z,39.20
2018-03-28T05:32:34.150Z,41.10
2018-03-28T05:34:27.444Z,41.60
2018-03-28T05:35:27.306Z,40.30
2018-03-28T05:37:21.651Z,38.00
2018-03-28T05:38:21.522Z,38.10
2018-03-28T05:40:14.764Z,37.80
2018-03-28T05:41:14.650Z,38.60
2018-03-28T05:43:07.912Z,38.00
2018-03-28T05:44:07.808Z,40.60
2018-03-28T05:46:01.139Z,40.80
2018-03-28T05:47:00.968Z,41.10
2018-03-28T05:48:53.735Z,41.00
2018-03-28T05:49:53.626Z,42.00
2018-03-28T05:51:46.403Z,45.00
2018-03-28T05:52:46.279Z,42.70
2018-03-28T05:54:39.109Z,37.70
2018-03-28T05:55:39.016Z,41.60
2018-03-28T05:57:31.775Z,39.10
2018-03-28T05:58:31.662Z,39.20
2018-03-28T06:00:24.414Z,42.80
2018-03-28T06:01:24.310Z,42.10
2018-03-28T06:03:17.069Z,38.90
2018-03-28T06:04:16.953Z,38.20
2018-03-28T06:06:10.243Z,42.80
2018-03-28T06:07:10.133Z,41.90
2018-03-28T06:09:03.374Z,39.70
2018-03-28T06:10:03.311Z,40.10
2018-03-28T06:11:56.546Z,38.80
2018-03-28T06:12:56.451Z,37.10
2018-03-28T06:14:49.299Z,39.30
2018-03-28T06:15:49.080Z,39.30
2018-03-28T06:17:41.852Z,39.80
2018-03-28T06:18:41.721Z,39.20
2018-03-28T06:20:34.984Z,39.80
2018-03-28T06:21:34.881Z,40.30
2018-03-28T06:23:27.747Z,37.30
2018-03-28T06:24:27.630Z,36.90
2018-03-28T06:26:20.381Z,38.90
2018-03-28T06:27:20.284Z,41.60
2018-03-28T06:29:13.054Z,37.30
2018-03-28T06:30:12.932Z,40.20
2018-03-28T06:32:06.194Z,39.20
2018-03-28T06:33:06.106Z,39.40
2018-03-28T06:34:58.862Z,40.10
2018-03-28T06:35:58.734Z,39.30
2018-03-28T06:37:51.484Z,38.60
2018-03-28T06:38:51.385Z,40.40
2018-03-28T06:40:44.156Z,39.50
2018-03-28T06:41:44.136Z,38.30
2018-03-28T06:43:36.811Z,39.30
2018-03-28T06:44:36.735Z,38.50
2018-03-28T06:46:29.955Z,36.40
2018-03-28T06:47:29.841Z,36.90
2018-03-28T06:49:22.601Z,37.30
2018-03-28T06:50:22.479Z,38.30
2018-03-28T06:52:15.273Z,38.20
2018-03-28T06:53:15.172Z,35.50
2018-03-28T06:55:07.876Z,35.80
2018-03-28T06:56:07.803Z,38.00
2018-03-28T06:58:00.583Z,35.90
2018-03-28T06:59:00.424Z,36.70
2018-03-28T07:00:53.197Z,37.10
2018-03-28T07:01:53.070Z,39.60
2018-03-28T07:03:45.852Z,37.50
2018-03-28T07:04:45.719Z,38.00
2018-03-28T07:06:38.516Z,36.20
2018-03-28T07:07:38.370Z,36.30
2018-03-28T07:09:31.139Z,36.80
2018-03-28T07:10:31.022Z,38.80
2018-03-28T07:12:23.793Z,35.50
2018-03-28T07:13:23.659Z,35.10
2018-03-28T07:15:16.937Z,38.30
2018-03-28T07:16:16.833Z,40.70
2018-03-28T07:18:10.092Z,38.10
2018-03-28T07:19:09.976Z,38.50
2018-03-28T07:21:02.831Z,39.90
2018-03-28T07:22:02.735Z,42.30
2018-03-28T07:23:55.503Z,44.60
2018-03-28T07:24:55.406Z,43.10
2018-03-28T07:26:48.174Z,40.60
2018-03-28T07:27:48.037Z,41.70
2018-03-28T07:29:40.814Z,42.30
2018-03-28T07:30:40.676Z,41.70
2018-03-28T07:32:33.449Z,45.50
2018-03-28T07:33:33.328Z,42.80
2018-03-28T07:35:26.707Z,47.40
2018-03-28T07:36:26.584Z,44.40
2018-03-28T07:38:19.346Z,43.20
2018-03-28T07:39:19.245Z,43.50
2018-03-28T07:41:11.988Z,43.50
2018-03-28T07:42:11.868Z,45.40
2018-03-28T07:44:04.623Z,46.30
2018-03-28T07:45:04.539Z,43.50
2018-03-28T07:46:57.306Z,43.30
2018-03-28T07:47:57.186Z,44.10
2018-03-28T07:49:49.925Z,45.90
2018-03-28T07:50:49.820Z,48.10
2018-03-28T07:52:42.566Z,47.20
2018-03-28T07:53:42.458Z,46.80
2018-03-28T07:55:35.725Z,50.80
2018-03-28T07:56:35.627Z,46.40
2018-03-28T07:58:28.390Z,49.00
2018-03-28T07:59:28.284Z,45.00
2018-03-28T08:01:21.052Z,48.00
2018-03-28T08:02:20.914Z,46.00
2018-03-28T08:04:13.683Z,48.90
2018-03-28T08:05:13.566Z,47.90
2018-03-28T08:07:06.334Z,48.70
2018-03-28T08:08:06.237Z,48.30
2018-03-28T08:09:58.973Z,50.50
2018-03-28T08:10:58.855Z,47.60
2018-03-28T08:12:51.631Z,46.00
2018-03-28T08:13:51.523Z,45.80
2018-03-28T08:15:44.265Z,50.50
2018-03-28T08:16:44.157Z,48.60
2018-03-28T08:18:36.925Z,49.30
2018-03-28T08:19:36.810Z,47.60
2018-03-28T08:21:29.647Z,44.90
2018-03-28T08:22:29.562Z,46.00
2018-03-28T08:24:22.836Z,45.30
2018-03-28T08:25:22.719Z,44.10
2018-03-28T08:27:15.459Z,48.20
2018-03-28T08:28:15.357Z,45.50
2018-03-28T08:30:08.207Z,46.30
2018-03-28T08:31:08.102Z,48.70
2018-03-28T08:33:00.850Z,46.40
2018-03-28T08:34:00.772Z,47.20
2018-03-28T08:35:53.517Z,50.30
2018-03-28T08:36:53.410Z,51.00
2018-03-28T08:38:46.167Z,46.10
2018-03-28T08:39:46.058Z,46.10
2018-03-28T08:41:38.826Z,48.40
2018-03-28T08:42:38.699Z,49.40
2018-03-28T08:44:31.462Z,50.40
2018-03-28T08:45:31.343Z,48.40
2018-03-28T08:47:24.116Z,51.10
2018-03-28T08:48:23.995Z,50.80
2018-03-28T08:50:16.755Z,51.80
2018-03-28T08:51:16.664Z,51.20
2018-03-28T08:53:09.403Z,49.90
2018-03-28T08:54:09.307Z,48.30
2018-03-28T08:56:02.043Z,51.00
2018-03-28T08:57:01.931Z,50.70
2018-03-28T08:58:54.700Z,49.70
2018-03-28T08:59:54.593Z,48.40
2018-03-28T09:01:47.464Z,48.10
2018-03-28T09:02:47.237Z,52.40
2018-03-28T09:04:39.980Z,49.80
2018-03-28T09:05:39.874Z,51.10
2018-03-28T09:07:32.622Z,50.30
2018-03-28T09:08:32.528Z,51.80
2018-03-28T09:10:25.284Z,58.30
2018-03-28T09:11:25.169Z,56.60
2018-03-28T09:13:18.020Z,56.00
2018-03-28T09:14:17.913Z,54.60
2018-03-28T09:16:10.697Z,52.50
2018-03-28T09:17:10.560Z,53.60
2018-03-28T09:19:03.332Z,59.50
2018-03-28T09:20:03.217Z,58.10
2018-03-28T09:21:55.966Z,83.40
2018-03-28T09:22:55.866Z,85.80
2018-03-28T09:24:48.622Z,95.20
2018-03-28T09:25:48.523Z,98.50
2018-03-28T09:27:41.276Z,98.40
2018-03-28T09:28:41.149Z,96.50
2018-03-28T09:30:34.012Z,88.40
2018-03-28T09:31:33.910Z,96.30
2018-03-28T09:33:26.787Z,113.50
2018-03-28T09:34:26.547Z,105.70
2018-03-28T09:36:19.824Z,120.10
2018-03-28T09:37:19.725Z,116.40
2018-03-28T09:39:12.467Z,116.70
2018-03-28T09:40:12.358Z,107.10
2018-03-28T09:42:05.158Z,119.20
2018-03-28T09:43:05.001Z,119.70
2018-03-28T09:44:57.864Z,115.10
2018-03-28T09:45:57.755Z,115.80
2018-03-28T09:47:50.504Z,111.50
2018-03-28T09:48:50.400Z,107.30
2018-03-28T09:50:43.174Z,105.90
2018-03-28T09:51:43.049Z,105.30
2018-03-28T09:53:35.903Z,104.60
2018-03-28T09:54:35.795Z,106.50
2018-03-28T09:56:28.569Z,105.00
2018-03-28T09:57:28.447Z,105.50
2018-03-28T09:59:21.708Z,101.20
2018-03-28T10:00:21.605Z,97.10
2018-03-28T10:02:14.867Z,104.40
2018-03-28T10:03:14.759Z,103.20
2018-03-28T10:05:07.508Z,104.60
2018-03-28T10:06:07.416Z,96.40
2018-03-28T10:08:00.172Z,96.20
2018-03-28T10:09:00.062Z,97.40
2018-03-28T10:10:52.810Z,88.20
2018-03-28T10:11:52.709Z,81.40
2018-03-28T10:13:45.559Z,84.20
2018-03-28T10:14:45.450Z,82.70
2018-03-28T10:16:38.246Z,84.10
2018-03-28T10:17:38.100Z,78.90
2018-03-28T10:19:30.848Z,85.80
2018-03-28T10:20:30.748Z,85.90
2018-03-28T10:22:23.523Z,85.00
2018-03-28T10:23:23.394Z,80.40
2018-03-28T10:25:16.158Z,77.90
2018-03-28T10:26:16.039Z,78.10
2018-03-28T10:28:09.318Z,72.30
2018-03-28T10:29:09.200Z,72.20
2018-03-28T10:31:01.996Z,68.00
2018-03-28T10:32:01.848Z,56.80
2018-03-28T10:33:54.624Z,47.60
2018-03-28T10:34:54.498Z,46.70
2018-03-28T10:36:47.257Z,47.20
2018-03-28T10:37:47.162Z,51.30
2018-03-28T10:39:39.925Z,66.00
2018-03-28T10:40:39.811Z,66.40
2018-03-28T10:42:34.092Z,69.80
2018-03-28T10:43:33.970Z,65.80
2018-03-28T10:45:27.259Z,69.20
2018-03-28T10:46:27.136Z,69.90
2018-03-28T10:48:20.398Z,76.90
2018-03-28T10:49:20.290Z,76.90
2018-03-28T10:51:13.674Z,65.00
2018-03-28T10:52:13.459Z,61.50
2018-03-28T10:54:07.740Z,52.90
2018-03-28T10:55:07.635Z,47.60
2018-03-28T10:57:00.919Z,49.80
2018-03-28T10:58:00.787Z,50.90
2018-03-28T10:59:54.064Z,46.20
2018-03-28T11:00:53.982Z,48.30
2018-03-28T11:02:47.222Z,43.70
2018-03-28T11:03:47.120Z,43.00
2018-03-28T11:05:39.862Z,46.30
2018-03-28T11:06:39.781Z,43.90
2018-03-28T11:08:34.050Z,39.10
2018-03-28T11:09:33.945Z,39.10
2018-03-28T11:11:26.816Z,40.60
2018-03-28T11:12:26.713Z,39.80
2018-03-28T11:14:19.467Z,40.50
2018-03-28T11:15:19.336Z,37.40
2018-03-28T11:17:12.086Z,37.40
2018-03-28T11:18:11.993Z,35.40
2018-03-28T11:20:04.743Z,35.00
2018-03-28T11:21:04.640Z,34.90
2018-03-28T11:22:57.381Z,30.50
2018-03-28T11:23:57.286Z,29.90
2018-03-28T11:25:50.047Z,30.20
2018-03-28T11:26:49.934Z,30.80
2018-03-28T11:28:42.721Z,30.50
2018-03-28T11:29:42.605Z,29.00
2018-03-28T11:31:35.855Z,28.10
2018-03-28T11:32:35.758Z,29.50
2018-03-28T11:34:28.507Z,28.80
2018-03-28T11:35:28.411Z,28.00
2018-03-28T11:37:21.249Z,29.90
2018-03-28T11:38:21.153Z,28.20
2018-03-28T11:40:13.899Z,29.10
2018-03-28T11:41:13.772Z,29.50
2018-03-28T11:43:06.556Z,30.80
2018-03-28T11:44:06.433Z,29.40
2018-03-28T11:45:59.289Z,29.10
2018-03-28T11:46:59.186Z,30.80
2018-03-28T11:48:51.953Z,31.70
2018-03-28T11:49:51.824Z,28.70
2018-03-28T11:51:44.612Z,31.20
2018-03-28T11:52:44.468Z,31.50
2018-03-28T11:54:37.321Z,33.00
2018-03-28T11:55:37.219Z,34.50
2018-03-28T11:57:29.982Z,35.10
2018-03-28T11:58:29.864Z,33.50
2018-03-28T12:00:23.126Z,36.60
2018-03-28T12:01:23.070Z,36.00
2018-03-28T12:03:15.868Z,34.60
2018-03-28T12:04:15.743Z,33.70
2018-03-28T12:06:08.547Z,35.90
2018-03-28T12:07:08.420Z,35.20
2018-03-28T12:09:01.716Z,37.10
2018-03-28T12:10:01.586Z,35.80
2018-03-28T12:11:54.325Z,34.90
2018-03-28T12:12:54.225Z,35.30
2018-03-28T12:14:46.982Z,33.80
2018-03-28T12:15:46.879Z,35.40
2018-03-28T12:17:39.758Z,35.20
2018-03-28T12:18:39.518Z,34.70
2018-03-28T12:20:32.805Z,36.70
2018-03-28T12:21:32.699Z,37.20
2018-03-28T12:23:25.430Z,36.80
2018-03-28T12:24:25.337Z,42.20
2018-03-28T12:26:18.083Z,36.60
2018-03-28T12:27:17.974Z,36.00
2018-03-28T12:29:10.717Z,37.00
2018-03-28T12:30:10.652Z,36.40
2018-03-28T12:32:03.404Z,35.50
2018-03-28T12:33:03.291Z,35.10
2018-03-28T12:34:56.016Z,29.80
2018-03-28T12:35:55.918Z,29.40
2018-03-28T12:37:48.781Z,28.10
2018-03-28T12:38:48.568Z,27.60
2018-03-28T12:40:41.334Z,28.40
2018-03-28T12:41:41.210Z,26.00
2018-03-28T12:43:34.075Z,27.10
2018-03-28T12:44:33.954Z,28.40
2018-03-28T12:46:27.246Z,27.30
2018-03-28T12:47:27.119Z,26.20
2018-03-28T12:49:19.998Z,25.80
2018-03-28T12:50:19.870Z,25.70
2018-03-28T12:52:14.265Z,27.20
2018-03-28T12:53:12.565Z,28.60
2018-03-28T12:55:05.310Z,29.40
2018-03-28T12:56:05.162Z,27.20
2018-03-28T12:57:57.930Z,31.60
2018-03-28T12:58:57.828Z,30.90
2018-03-28T13:00:50.648Z,31.30
2018-03-28T13:01:50.569Z,28.40
2018-03-28T13:03:43.319Z,27.40
2018-03-28T13:04:43.211Z,26.10
2018-03-28T13:06:35.959Z,25.10
2018-03-28T13:07:35.853Z,28.10
2018-03-28T13:09:29.154Z,31.90
2018-03-28T13:10:29.023Z,34.80
2018-03-28T13:12:21.784Z,84.00
2018-03-28T13:13:21.679Z,56.00
2018-03-28T13:15:14.940Z,46.30
2018-03-28T13:16:14.817Z,33.70
2018-03-28T13:18:07.575Z,34.90
2018-03-28T13:19:07.463Z,34.00
2018-03-28T13:21:00.338Z,37.10
2018-03-28T13:22:00.225Z,44.40
2018-03-28T13:23:53.013Z,34.70
2018-03-28T13:24:52.913Z,29.70
2018-03-28T13:26:45.641Z,32.30
2018-03-28T13:27:45.507Z,33.60
2018-03-28T13:29:38.257Z,31.80
2018-03-28T13:30:38.170Z,30.90
2018-03-28T13:32:30.918Z,30.80
2018-03-28T13:33:30.798Z,30.80
2018-03-28T13:35:23.557Z,29.80
2018-03-28T13:36:23.447Z,30.20
2018-03-28T13:38:16.732Z,30.20
2018-03-28T13:39:16.614Z,30.70
2018-03-28T13:41:09.354Z,30.20
2018-03-28T13:42:09.262Z,30.50
2018-03-28T13:44:03.033Z,28.40
2018-03-28T13:45:02.935Z,28.40
2018-03-28T13:46:55.782Z,27.00
2018-03-28T13:47:55.683Z,28.60
2018-03-28T13:49:48.440Z,28.60
2018-03-28T13:50:48.333Z,29.30
2018-03-28T13:52:41.083Z,31.10
2018-03-28T13:53:40.980Z,30.70
2018-03-28T13:55:33.831Z,31.90
2018-03-28T13:56:33.723Z,33.20
2018-03-28T13:58:27.491Z,33.10
2018-03-28T13:59:27.408Z,34.50
2018-03-28T14:01:21.186Z,34.90
2018-03-28T14:02:21.063Z,36.40
2018-03-28T14:04:13.819Z,35.80
2018-03-28T14:05:13.717Z,35.80
2018-03-28T14:07:06.472Z,34.30
2018-03-28T14:08:06.356Z,35.00
2018-03-28T14:10:00.224Z,36.40
2018-03-28T14:11:00.134Z,36.80
2018-03-28T14:12:52.893Z,35.10
2018-03-28T14:13:52.789Z,40.50
2018-03-28T14:15:45.526Z,37.30
2018-03-28T14:16:45.427Z,37.70
2018-03-28T14:18:38.177Z,38.00
2018-03-28T14:19:38.093Z,36.70
2018-03-28T14:21:30.869Z,39.20
2018-03-28T14:22:30.732Z,41.70
2018-03-28T14:24:24.002Z,39.30
2018-03-28T14:25:23.922Z,40.20
2018-03-28T14:27:16.647Z,37.80
2018-03-28T14:28:16.531Z,40.20
2018-03-28T14:30:09.283Z,38.60
2018-03-28T14:31:09.183Z,39.50
2018-03-28T14:33:02.032Z,38.40
2018-03-28T14:34:01.917Z,38.00
2018-03-28T14:35:54.762Z,38.40
2018-03-28T14:36:54.566Z,40.90
2018-03-28T14:38:47.329Z,38.40
2018-03-28T14:39:47.833Z,40.80
2018-03-28T14:41:40.069Z,39.00
2018-03-28T14:42:39.967Z,38.90
2018-03-28T14:44:32.725Z,40.00
2018-03-28T14:45:32.621Z,38.30
2018-03-28T14:47:25.866Z,42.00
2018-03-28T14:48:25.264Z,42.50
2018-03-28T14:50:18.011Z,44.00
2018-03-28T14:51:17.917Z,42.30
2018-03-28T14:53:10.783Z,39.70
2018-03-28T14:54:10.650Z,39.00
2018-03-28T14:56:03.430Z,40.30
2018-03-28T14:57:03.311Z,40.00
2018-03-28T14:58:56.061Z,42.20
2018-03-28T14:59:55.956Z,42.50
2018-03-28T15:01:48.742Z,42.60
2018-03-28T15:02:48.615Z,42.40
2018-03-28T15:04:41.455Z,39.90
2018-03-28T15:05:41.348Z,41.20
2018-03-28T15:07:34.117Z,40.00
2018-03-28T15:08:34.000Z,40.60
2018-03-28T15:10:27.284Z,41.10
2018-03-28T15:11:27.161Z,42.80
2018-03-28T15:13:19.990Z,42.20
2018-03-28T15:14:19.826Z,44.80
2018-03-28T15:16:12.576Z,42.20
2018-03-28T15:17:12.450Z,43.80
2018-03-28T15:19:05.221Z,42.30
2018-03-28T15:20:05.096Z,43.10
2018-03-28T15:21:57.845Z,42.50
2018-03-28T15:22:57.748Z,43.10
2018-03-28T15:24:50.512Z,46.50
2018-03-28T15:25:50.385Z,45.00
2018-03-28T15:27:43.148Z,43.20
2018-03-28T15:28:43.037Z,41.60
2018-03-28T15:30:35.809Z,48.00
2018-03-28T15:31:35.685Z,49.90
2018-03-28T15:33:29.985Z,45.90
2018-03-28T15:34:29.872Z,46.90
2018-03-28T15:36:24.207Z,42.00
2018-03-28T15:37:24.061Z,45.50
2018-03-28T15:39:17.320Z,46.70
2018-03-28T15:40:17.219Z,45.40
2018-03-28T15:42:10.484Z,47.00
2018-03-28T15:43:10.369Z,48.70
2018-03-28T15:45:06.236Z,48.50
2018-03-28T15:46:06.081Z,49.50
2018-03-28T15:47:58.863Z,50.10
2018-03-28T15:48:58.741Z,49.00
2018-03-28T15:50:51.995Z,45.80
2018-03-28T15:51:51.902Z,49.40
2018-03-28T15:53:45.191Z,49.00
2018-03-28T15:54:45.055Z,53.80
2018-03-28T15:56:38.839Z,53.10
2018-03-28T15:57:38.729Z,55.90
2018-03-28T15:59:32.029Z,47.80
2018-03-28T16:00:31.905Z,52.00
2018-03-28T16:02:25.143Z,57.10
2018-03-28T16:03:25.044Z,52.50
2018-03-28T16:05:17.901Z,54.00
2018-03-28T16:06:17.801Z,57.30
2018-03-28T16:08:10.542Z,54.40
2018-03-28T16:09:10.445Z,50.20
2018-03-28T16:11:03.200Z,54.50
2018-03-28T16:12:03.089Z,54.80
2018-03-28T16:13:55.984Z,52.80
2018-03-28T16:14:55.848Z,55.70
2018-03-28T16:16:48.590Z,59.50
2018-03-28T16:17:48.497Z,56.20
2018-03-28T16:19:42.816Z,55.40
2018-03-28T16:20:42.699Z,56.60
2018-03-28T16:22:35.463Z,54.10
2018-03-28T16:23:35.311Z,56.70
2018-03-28T16:25:28.081Z,56.90
2018-03-28T16:26:27.965Z,53.50
2018-03-28T16:28:20.743Z,57.90
2018-03-28T16:29:20.616Z,57.50
2018-03-28T16:31:13.478Z,61.80
2018-03-28T16:32:13.768Z,53.50
2018-03-28T16:34:11.268Z,49.70
2018-03-28T16:35:10.590Z,51.90
2018-03-28T16:37:03.101Z,54.90
2018-03-28T16:38:01.927Z,51.00
2018-03-28T16:39:54.782Z,47.00
2018-03-28T16:40:54.630Z,47.70
2018-03-28T16:42:47.788Z,52.00
2018-03-28T16:43:48.415Z,47.60
2018-03-28T16:45:40.012Z,49.80
2018-03-28T16:46:40.377Z,49.90
2018-03-28T16:48:33.173Z,44.10
2018-03-28T16:49:33.059Z,45.60
2018-03-28T16:51:27.796Z,45.20
2018-03-28T16:52:25.698Z,50.10
2018-03-28T16:54:18.460Z,47.20
2018-03-28T16:55:18.398Z,51.60
2018-03-28T16:57:11.087Z,54.40
2018-03-28T16:58:10.964Z,54.30
2018-03-28T17:00:03.734Z,50.20
2018-03-28T17:01:04.231Z,52.50
2018-03-28T17:02:56.416Z,48.90
2018-03-28T17:03:56.269Z,47.80
2018-03-28T17:05:49.041Z,47.20
2018-03-28T17:06:48.909Z,46.30
2018-03-28T17:08:41.685Z,53.60
2018-03-28T17:09:41.601Z,46.90
2018-03-28T17:11:34.311Z,41.00
2018-03-28T17:12:34.206Z,40.60
2018-03-28T17:14:26.974Z,46.10
2018-03-28T17:15:26.889Z,48.80
2018-03-28T17:17:19.608Z,48.30
2018-03-28T17:18:19.496Z,44.80
2018-03-28T17:20:12.869Z,45.20
2018-03-28T17:21:12.161Z,50.30
2018-03-28T17:23:05.412Z,44.00
2018-03-28T17:24:05.312Z,44.80
2018-03-28T17:25:58.077Z,49.40
2018-03-28T17:26:57.953Z,50.00
2018-03-28T17:28:51.246Z,50.00
2018-03-28T17:29:51.175Z,50.00
2018-03-28T17:31:43.876Z,44.70
2018-03-28T17:32:43.772Z,48.10
2018-03-28T17:34:36.536Z,46.00
2018-03-28T17:35:36.444Z,43.20
2018-03-28T17:37:29.194Z,49.80
2018-03-28T17:38:29.062Z,48.70
2018-03-28T17:40:21.822Z,45.20
2018-03-28T17:41:21.706Z,41.90
2018-03-28T17:43:14.463Z,42.20
2018-03-28T17:44:14.352Z,43.00
2018-03-28T17:46:07.124Z,39.00
2018-03-28T17:47:07.002Z,39.00
2018-03-28T17:49:00.330Z,35.80
2018-03-28T17:50:00.205Z,35.70
2018-03-28T17:51:52.904Z,33.90
2018-03-28T17:52:52.802Z,37.90
2018-03-28T17:54:45.558Z,33.30
2018-03-28T17:55:46.058Z,30.10
2018-03-28T17:57:38.197Z,30.00
2018-03-28T17:58:38.106Z,31.00
2018-03-28T18:00:30.851Z,32.10
2018-03-28T18:01:30.759Z,29.10
2018-03-28T18:03:23.490Z,32.30
2018-03-28T18:04:23.388Z,28.60
2018-03-28T18:06:16.241Z,30.80
2018-03-28T18:07:16.046Z,30.80
2018-03-28T18:09:08.784Z,31.80
2018-03-28T18:10:08.694Z,31.80
2018-03-28T18:12:01.447Z,30.10
2018-03-28T18:13:01.339Z,30.10
2018-03-28T18:14:54.079Z,29.50
2018-03-28T18:15:53.978Z,29.90
2018-03-28T18:17:46.754Z,28.00
2018-03-28T18:18:46.640Z,29.30
2018-03-28T18:20:39.429Z,26.10
2018-03-28T18:21:39.268Z,28.10
2018-03-28T18:23:32.535Z,26.50
2018-03-28T18:24:32.428Z,28.50
2018-03-28T18:26:25.180Z,30.00
2018-03-28T18:27:25.074Z,26.40
2018-03-28T18:29:17.841Z,32.50
2018-03-28T18:30:17.723Z,27.70
2018-03-28T18:32:10.470Z,27.70